Time;durP1;ratioP1;P1;durP2;ratioP2;P2;SDS_P1;SDS_P2;PMS_P1;PMS_P2;Temp;Humidity;BMP_temperature;BMP_pressure;BME280_temperature;BME280_humidity;BME280_pressure;Samples;Min_cycle;Max_cycle;Signal;HPM_P1;HPM_P2
2023/04/23 00:02:15;;;;;;;;;;;;;;;25.41;22.84;97838.47;5067270;28;20390;-88
2023/04/23 00:04:48;;;;;;;;;;;;;;;25.34;23.01;97830.28;5070080;28;20019;-88
2023/04/23 00:07:15;;;;;;;;;;;;;;;25.24;22.82;97836.22;5072719;28;20015;-88
2023/04/23 00:09:42;;;;;;;;;;;;;;;25.14;22.27;97834.53;5071534;28;20307;-88
2023/04/23 00:12:08;;;;;;;;;;;;;;;24.76;22.87;97833.63;5064532;28;19943;-88
2023/04/23 00:14:34;;;;;;;;;;;;;;;24.46;22.42;97843.28;5072523;28;19919;-88
2023/04/23 00:17:00;;;;;;;;;;;;;;;24.18;23.55;97839.22;5058460;28;19970;-88
2023/04/23 00:19:26;;;;;;;;;;;;;;;24.36;22.85;97838.75;5067717;28;19924;-88
2023/04/23 00:21:52;;;;;;;;;;;;;;;24.16;23.10;97838.06;5061492;28;19965;-88
2023/04/23 00:24:19;;;;;;;;;;;;;;;24.32;22.94;97826.84;5072505;28;19920;-88
2023/04/23 00:26:45;;;;;;;;;;;;;;;24.48;22.57;97835.97;5071814;28;20034;-89
2023/04/23 00:29:11;;;;;;;;;;;;;;;24.00;23.23;97830.44;5073512;28;19924;-89
2023/04/23 00:31:37;;;;;;;;;;;;;;;23.70;23.90;97825.97;5069569;28;19916;-88
2023/04/23 00:34:03;;;;;;;;;;;;;;;23.84;23.78;97827.66;5071357;28;19921;-88
2023/04/23 00:36:29;;;;;;;;;;;;;;;23.72;24.12;97829.13;5069305;28;20001;-88
2023/04/23 00:38:55;;;;;;;;;;;;;;;23.86;23.68;97828.00;5066987;28;19925;-88
2023/04/23 00:41:22;;;;;;;;;;;;;;;23.69;24.26;97821.59;5072593;28;20358;-87
2023/04/23 00:43:48;;;;;;;;;;;;;;;23.82;23.93;97822.50;5054656;28;20273;-87
2023/04/23 00:46:15;;;;;;;;;;;;;;;23.92;23.97;97820.66;5053002;28;19924;-87
2023/04/23 00:48:41;;;;;;;;;;;;;;;23.92;23.33;97821.41;5054696;28;19931;-87
2023/04/23 00:51:10;;;;;;;;;;;;;;;23.86;23.71;97823.19;5062901;28;20380;-88
2023/04/23 00:53:36;;;;;;;;;;;;;;;23.78;24.07;97818.97;5053141;28;19921;-88
2023/04/23 00:56:03;;;;;;;;;;;;;;;23.90;23.78;97818.25;5064126;28;19925;-88
2023/04/23 00:58:29;;;;;;;;;;;;;;;23.88;24.08;97819.94;5062880;28;19963;-88
2023/04/23 01:00:55;;;;;;;;;;;;;;;23.95;23.71;97820.53;5058689;28;19924;-88
2023/04/23 01:03:21;;;;;;;;;;;;;;;24.02;23.72;97825.97;5066019;28;19920;-88
2023/04/23 01:05:48;;;;;;;;;;;;;;;23.97;23.72;97820.88;5063811;28;19921;-88
2023/04/23 01:08:15;;;;;;;;;;;;;;;24.03;23.77;97821.94;5065277;28;19916;-88
2023/04/23 01:10:42;;;;;;;;;;;;;;;24.23;23.48;97815.44;5071828;28;19972;-87
2023/04/23 01:13:08;;;;;;;;;;;;;;;24.22;23.54;97822.28;5072912;28;20050;-87
2023/04/23 01:15:34;;;;;;;;;;;;;;;24.25;23.31;97822.19;5069260;28;20330;-88
2023/04/23 01:18:00;;;;;;;;;;;;;;;24.30;23.44;97823.66;5059710;28;19970;-87
2023/04/23 01:20:26;;;;;;;;;;;;;;;24.48;23.49;97821.94;5055045;28;19921;-88
2023/04/23 01:22:53;;;;;;;;;;;;;;;24.64;22.98;97816.28;5072726;28;19920;-88
2023/04/23 01:25:19;;;;;;;;;;;;;;;24.68;22.89;97813.38;5072544;28;20299;-88
2023/04/23 01:27:45;;;;;;;;;;;;;;;24.71;22.58;97816.09;5076697;28;19925;-88
2023/04/23 01:30:11;;;;;;;;;;;;;;;24.62;22.29;97826.41;5075513;28;19943;-87
2023/04/23 01:32:38;;;;;;;;;;;;;;;24.46;22.89;97820.81;5075820;28;19920;-88
2023/04/23 01:35:04;;;;;;;;;;;;;;;24.34;22.89;97824.38;5074750;28;19970;-87
2023/04/23 01:37:31;;;;;;;;;;;;;;;24.07;23.54;97829.50;5068940;28;20233;-87
2023/04/23 01:39:57;;;;;;;;;;;;;;;24.10;23.04;97834.22;5056186;28;19916;-87
2023/04/23 01:42:23;;;;;;;;;;;;;;;24.19;22.99;97835.19;5071412;28;19979;-88
2023/04/23 01:44:49;;;;;;;;;;;;;;;24.23;22.74;97832.28;5058979;28;19962;-87
2023/04/23 01:47:15;;;;;;;;;;;;;;;24.18;23.22;97832.84;5068725;28;20376;-88
2023/04/23 01:49:41;;;;;;;;;;;;;;;24.12;23.14;97831.78;5060167;28;19928;-88
2023/04/23 01:52:07;;;;;;;;;;;;;;;24.11;22.92;97833.00;5069954;28;19920;-88
2023/04/23 01:54:33;;;;;;;;;;;;;;;24.09;22.55;97829.84;5075994;28;19916;-88
2023/04/23 01:56:59;;;;;;;;;;;;;;;23.90;22.81;97828.69;5069330;28;19931;-88
2023/04/23 01:59:25;;;;;;;;;;;;;;;23.84;23.55;97828.44;5057546;28;20388;-88
2023/04/23 02:01:52;;;;;;;;;;;;;;;23.85;23.38;97827.19;5068546;28;19925;-88
2023/04/23 02:04:18;;;;;;;;;;;;;;;23.84;23.18;97830.44;5074724;28;19923;-88
2023/04/23 02:06:46;;;;;;;;;;;;;;;23.91;23.20;97827.47;5079820;28;20453;-88
2023/04/23 02:09:12;;;;;;;;;;;;;;;23.97;23.09;97825.69;5075551;28;19970;-88
2023/04/23 02:11:38;;;;;;;;;;;;;;;24.03;23.00;97835.19;5070745;28;19921;-88
2023/04/23 02:14:04;;;;;;;;;;;;;;;23.98;23.32;97833.69;5058347;28;19956;-88
2023/04/23 02:16:31;;;;;;;;;;;;;;;23.96;23.16;97835.34;5073695;28;19974;-88
2023/04/23 02:18:57;;;;;;;;;;;;;;;23.94;23.05;97830.16;5073866;28;20335;-88
2023/04/23 02:21:23;;;;;;;;;;;;;;;23.91;23.60;97827.47;5074658;28;19920;-88
2023/04/23 02:23:49;;;;;;;;;;;;;;;23.90;23.56;97823.88;5067313;28;20364;-88
2023/04/23 02:26:16;;;;;;;;;;;;;;;23.98;23.65;97828.09;5072854;28;19967;-88
2023/04/23 02:28:42;;;;;;;;;;;;;;;23.97;22.87;97829.31;5073653;28;20316;-88
2023/04/23 02:31:08;;;;;;;;;;;;;;;23.92;22.82;97818.59;5070276;28;19943;-88
2023/04/23 02:33:34;;;;;;;;;;;;;;;23.63;23.38;97820.56;5071221;28;19920;-88
2023/04/23 02:36:00;;;;;;;;;;;;;;;23.35;23.45;97815.63;5070261;28;19958;-88
2023/04/23 02:38:26;;;;;;;;;;;;;;;23.47;23.31;97814.94;5073201;28;20426;-88
2023/04/23 02:40:52;;;;;;;;;;;;;;;23.59;23.32;97825.47;5067046;28;19920;-88
2023/04/23 02:43:18;;;;;;;;;;;;;;;23.53;23.23;97807.56;5064337;28;20057;-88
2023/04/23 02:45:44;;;;;;;;;;;;;;;23.41;23.36;97815.91;5067975;28;20011;-89
2023/04/23 02:48:10;;;;;;;;;;;;;;;23.49;24.01;97820.09;5068689;28;19921;-88
2023/04/23 02:50:39;;;;;;;;;;;;;;;23.52;23.58;97813.63;5073102;28;20387;-89
2023/04/23 02:53:06;;;;;;;;;;;;;;;23.72;22.99;97817.13;5071779;28;19917;-89
2023/04/23 02:55:32;;;;;;;;;;;;;;;23.67;23.31;97817.66;5064135;28;19920;-88
2023/04/23 02:57:58;;;;;;;;;;;;;;;23.84;23.11;97822.84;5072006;28;19931;-88
2023/04/23 03:00:25;;;;;;;;;;;;;;;23.85;22.90;97815.97;5067775;28;20024;-88
2023/04/23 03:02:51;;;;;;;;;;;;;;;23.88;23.00;97817.13;5067406;28;20161;-88
2023/04/23 03:05:17;;;;;;;;;;;;;;;23.90;23.56;97818.25;5063429;28;19935;-89
2023/04/23 03:07:43;;;;;;;;;;;;;;;23.99;22.78;97818.44;5066382;28;19923;-89
2023/04/23 03:10:09;;;;;;;;;;;;;;;23.85;23.12;97804.75;5072849;28;19921;-89
2023/04/23 03:12:35;;;;;;;;;;;;;;;23.98;23.12;97810.47;5066774;28;21079;-88
2023/04/23 03:15:01;;;;;;;;;;;;;;;23.87;23.38;97818.38;5073319;28;19931;-88
2023/04/23 03:17:27;;;;;;;;;;;;;;;24.00;23.37;97811.59;5055625;28;19963;-88
2023/04/23 03:19:53;;;;;;;;;;;;;;;24.17;23.26;97806.78;5055829;28;19920;-89
2023/04/23 03:22:19;;;;;;;;;;;;;;;24.34;22.56;97810.34;5070033;28;19934;-89
2023/04/23 03:24:45;;;;;;;;;;;;;;;24.14;22.82;97809.69;5070735;28;19944;-88
2023/04/23 03:27:11;;;;;;;;;;;;;;;23.96;22.74;97816.53;5073350;28;19928;-89
2023/04/23 03:29:37;;;;;;;;;;;;;;;23.76;23.20;97812.22;5074914;28;19928;-89
2023/04/23 03:32:03;;;;;;;;;;;;;;;23.72;23.14;97805.91;5069860;28;19982;-88
2023/04/23 03:34:29;;;;;;;;;;;;;;;23.72;23.35;97815.13;5070301;28;19921;-89
2023/04/23 03:36:55;;;;;;;;;;;;;;;24.01;22.64;97821.56;5068760;28;19917;-89
2023/04/23 03:39:22;;;;;;;;;;;;;;;24.01;23.50;97815.19;5058799;28;19921;-89
2023/04/23 03:41:48;;;;;;;;;;;;;;;24.31;22.49;97814.81;5073369;28;19943;-89
2023/04/23 03:44:14;;;;;;;;;;;;;;;24.06;22.65;97814.72;5062425;28;19917;-89
2023/04/23 03:46:40;;;;;;;;;;;;;;;23.76;23.40;97813.00;5073358;28;19955;-89
2023/04/23 03:49:06;;;;;;;;;;;;;;;23.87;23.76;97815.56;5072534;28;19924;-89
2023/04/23 03:51:32;;;;;;;;;;;;;;;24.23;22.87;97818.25;5064257;28;19920;-89
2023/04/23 03:53:58;;;;;;;;;;;;;;;24.10;23.49;97815.38;5058465;28;19922;-88
2023/04/23 03:56:25;;;;;;;;;;;;;;;24.24;23.40;97814.22;5067602;28;19925;-89
2023/04/23 03:58:51;;;;;;;;;;;;;;;24.51;22.80;97811.84;5069754;28;20388;-89
2023/04/23 04:01:17;;;;;;;;;;;;;;;24.41;23.70;97813.72;5073213;28;19928;-89
2023/04/23 04:03:43;;;;;;;;;;;;;;;24.66;23.68;97805.41;5072328;28;19921;-89
2023/04/23 04:06:09;;;;;;;;;;;;;;;25.02;23.41;97808.00;5070216;28;20372;-89
2023/04/23 04:08:35;;;;;;;;;;;;;;;25.13;23.18;97804.88;5064946;28;19921;-89
2023/04/23 04:11:01;;;;;;;;;;;;;;;25.32;23.55;97812.31;5069229;28;20100;-89
2023/04/23 04:13:27;;;;;;;;;;;;;;;25.46;24.01;97811.91;5066056;28;20411;-89
2023/04/23 04:15:53;;;;;;;;;;;;;;;25.63;24.09;97810.53;5068018;28;19920;-89
2023/04/23 04:18:19;;;;;;;;;;;;;;;25.88;24.00;97818.16;5067460;28;19921;-89
2023/04/23 04:20:45;;;;;;;;;;;;;;;26.22;23.28;97821.03;5069991;28;19928;-89
2023/04/23 04:23:11;;;;;;;;;;;;;;;26.07;24.16;97817.88;5067202;28;20295;-89
2023/04/23 04:25:41;;;;;;;;;;;;;;;26.36;23.56;97814.91;5074126;28;19921;-89
2023/04/23 04:28:08;;;;;;;;;;;;;;;26.36;23.67;97811.28;5072100;28;19928;-89
2023/04/23 04:30:34;;;;;;;;;;;;;;;26.28;24.33;97816.38;5070948;28;19928;-89
2023/04/23 04:33:00;;;;;;;;;;;;;;;26.32;24.10;97817.06;5073745;28;20367;-89
2023/04/23 04:35:26;;;;;;;;;;;;;;;26.49;24.08;97810.00;5074074;28;19925;-89
2023/04/23 04:37:53;;;;;;;;;;;;;;;26.77;23.78;97818.69;5075888;28;19921;-90
2023/04/23 04:40:19;;;;;;;;;;;;;;;26.73;24.23;97819.56;5067236;28;19921;-89
2023/04/23 04:42:45;;;;;;;;;;;;;;;26.88;24.08;97813.44;5060821;28;19927;-90
2023/04/23 04:45:11;;;;;;;;;;;;;;;26.96;26.26;97815.53;5071320;28;19924;-90
2023/04/23 04:47:37;;;;;;;;;;;;;;;27.18;24.21;97818.31;5073448;28;19927;-89
2023/04/23 04:50:04;;;;;;;;;;;;;;;27.39;24.53;97820.34;5057043;28;20384;-90
2023/04/23 04:52:30;;;;;;;;;;;;;;;27.52;24.70;97823.84;5070416;28;20052;-90
2023/04/23 04:54:56;;;;;;;;;;;;;;;27.63;24.68;97824.22;5072464;28;19928;-90
2023/04/23 04:57:22;;;;;;;;;;;;;;;27.72;25.97;97824.25;5073902;28;19956;-89
2023/04/23 04:59:48;;;;;;;;;;;;;;;27.80;24.40;97827.53;5069384;28;19924;-89
2023/04/23 05:02:15;;;;;;;;;;;;;;;28.08;23.42;97828.47;5076549;28;19921;-89
2023/04/23 05:04:41;;;;;;;;;;;;;;;27.92;24.99;97821.78;5074948;28;19924;-89
2023/04/23 05:07:07;;;;;;;;;;;;;;;28.02;25.01;97823.44;5077601;28;19969;-89
2023/04/23 05:09:33;;;;;;;;;;;;;;;28.04;24.97;97820.91;5075994;28;20400;-90
2023/04/23 05:12:00;;;;;;;;;;;;;;;28.06;23.72;97823.25;5072858;28;20870;-90
2023/04/23 05:14:26;;;;;;;;;;;;;;;28.12;23.09;97812.94;5072917;28;19928;-91
2023/04/23 05:16:52;;;;;;;;;;;;;;;28.08;24.68;97821.53;5057206;28;20311;-91
2023/04/23 05:19:18;;;;;;;;;;;;;;;28.22;25.93;97828.63;5062972;28;19974;-90
2023/04/23 05:21:44;;;;;;;;;;;;;;;28.41;23.62;97824.56;5065761;28;20021;-90
2023/04/23 05:24:10;;;;;;;;;;;;;;;28.36;24.51;97818.75;5074805;28;20398;-91
2023/04/23 05:26:37;;;;;;;;;;;;;;;28.11;23.64;97824.69;5075589;28;20375;-91
2023/04/23 05:29:03;;;;;;;;;;;;;;;27.94;23.56;97816.47;5072776;28;19927;-91
2023/04/23 05:31:29;;;;;;;;;;;;;;;28.24;24.37;97819.69;5056739;28;19921;-91
2023/04/23 05:33:55;;;;;;;;;;;;;;;28.33;23.17;97814.06;5059921;28;19921;-90
2023/04/23 05:36:21;;;;;;;;;;;;;;;28.56;24.92;97817.06;5078996;28;20081;-91
2023/04/23 05:38:47;;;;;;;;;;;;;;;28.79;23.66;97817.69;5071052;28;20392;-91
2023/04/23 05:41:13;;;;;;;;;;;;;;;28.79;24.22;97823.34;5062777;28;20299;-90
2023/04/23 05:43:40;;;;;;;;;;;;;;;28.78;25.70;97811.25;5064545;28;19920;-90
2023/04/23 05:46:06;;;;;;;;;;;;;;;29.04;22.15;97817.31;5065706;28;20393;-91
2023/04/23 05:48:32;;;;;;;;;;;;;;;29.08;25.73;97812.31;5069395;28;19958;-90
2023/04/23 05:50:58;;;;;;;;;;;;;;;28.64;24.41;97820.34;5067800;28;20300;-91
2023/04/23 05:53:24;;;;;;;;;;;;;;;28.56;23.58;97816.25;5066378;28;20383;-91
2023/04/23 05:55:50;;;;;;;;;;;;;;;28.80;23.59;97807.97;5078755;28;19920;-90
2023/04/23 05:58:18;;;;;;;;;;;;;;;29.06;22.38;97812.75;5081745;28;19931;-91
2023/04/23 06:00:44;;;;;;;;;;;;;;;29.06;24.75;97812.75;5071356;28;19956;-91
2023/04/23 06:03:10;;;;;;;;;;;;;;;29.34;24.24;97811.47;5074934;28;19942;-91
2023/04/23 06:05:37;;;;;;;;;;;;;;;29.68;24.40;97815.91;5068730;28;19966;-91
2023/04/23 06:08:03;;;;;;;;;;;;;;;29.78;23.99;97806.13;5071815;28;19921;-90
2023/04/23 06:10:29;;;;;;;;;;;;;;;29.20;24.78;97808.50;5070012;28;20441;-91
2023/04/23 06:12:55;;;;;;;;;;;;;;;29.39;26.02;97816.47;5063009;28;20012;-89
2023/04/23 06:15:25;;;;;;;;;;;;;;;30.08;22.42;97815.56;5074665;28;19912;-90
2023/04/23 06:17:52;;;;;;;;;;;;;;;29.34;23.26;97816.34;5070696;28;20302;-91
2023/04/23 06:20:18;;;;;;;;;;;;;;;29.26;23.03;97823.59;5074985;28;19954;-90
2023/04/23 06:22:44;;;;;;;;;;;;;;;28.98;22.80;97811.53;5070784;28;19916;-91
2023/04/23 06:25:10;;;;;;;;;;;;;;;29.71;22.80;97820.59;5058983;28;19928;-90
2023/04/23 06:27:36;;;;;;;;;;;;;;;30.09;22.60;97815.06;5059610;28;19958;-91
2023/04/23 06:30:03;;;;;;;;;;;;;;;30.09;24.64;97828.44;5073887;28;19948;-90
2023/04/23 06:32:29;;;;;;;;;;;;;;;30.60;24.39;97816.91;5070563;28;20418;-90
2023/04/23 06:34:55;;;;;;;;;;;;;;;30.81;22.63;97817.88;5072144;28;19917;-91
2023/04/23 06:37:21;;;;;;;;;;;;;;;30.64;23.72;97823.97;5067029;28;19920;-91
2023/04/23 06:39:47;;;;;;;;;;;;;;;30.58;25.68;97820.25;5070796;28;19920;-90
2023/04/23 06:42:14;;;;;;;;;;;;;;;30.98;22.78;97813.28;5090973;28;20018;-91
2023/04/23 06:44:40;;;;;;;;;;;;;;;30.95;22.67;97815.06;5077682;28;19920;-92
2023/04/23 06:47:06;;;;;;;;;;;;;;;30.91;21.94;97816.53;5076448;28;20058;-92
2023/04/23 06:49:32;;;;;;;;;;;;;;;30.91;23.94;97808.81;5060966;28;20015;-90
2023/04/23 06:51:58;;;;;;;;;;;;;;;31.26;23.24;97809.69;5067604;28;19938;-91
2023/04/23 06:54:24;;;;;;;;;;;;;;;31.26;21.53;97801.19;5071870;28;19939;-89
2023/04/23 06:56:51;;;;;;;;;;;;;;;31.39;22.73;97806.56;5068069;28;19931;-91
2023/04/23 06:59:18;;;;;;;;;;;;;;;30.91;22.83;97808.00;5067417;28;20388;-90
2023/04/23 07:01:44;;;;;;;;;;;;;;;31.16;23.14;97799.72;5072452;28;19929;-90
2023/04/23 07:04:10;;;;;;;;;;;;;;;31.55;22.42;97794.72;5072380;28;20023;-91
2023/04/23 07:06:36;;;;;;;;;;;;;;;31.71;23.13;97794.19;5069008;28;19956;-89
2023/04/23 07:09:02;;;;;;;;;;;;;;;32.03;21.93;97800.88;5069171;28;19935;-89
2023/04/23 07:11:30;;;;;;;;;;;;;;;32.22;22.24;97798.56;5072644;28;19920;-90
2023/04/23 07:13:57;;;;;;;;;;;;;;;32.32;22.38;97803.63;5068888;28;19935;-91
2023/04/23 07:16:24;;;;;;;;;;;;;;;32.12;23.70;97806.44;5070058;28;19917;-89
2023/04/23 07:18:50;;;;;;;;;;;;;;;31.72;21.34;97804.28;5066441;28;20280;-88
2023/04/23 07:21:16;;;;;;;;;;;;;;;31.73;23.39;97796.53;5069257;28;20441;-91
2023/04/23 07:23:42;;;;;;;;;;;;;;;32.12;20.93;97800.75;5067525;28;19920;-88
2023/04/23 07:26:08;;;;;;;;;;;;;;;32.16;24.39;97807.00;5067558;28;20313;-91
2023/04/23 07:28:34;;;;;;;;;;;;;;;32.50;22.90;97802.56;5070416;28;20006;-93
2023/04/23 07:31:01;;;;;;;;;;;;;;;32.96;23.61;97805.38;5070805;28;20326;-90
2023/04/23 07:33:28;;;;;;;;;;;;;;;33.02;23.45;97804.22;5069708;28;19920;-90
2023/04/23 07:35:54;;;;;;;;;;;;;;;33.20;23.20;97801.03;5066220;28;19959;-91
2023/04/23 07:38:20;;;;;;;;;;;;;;;33.53;20.35;97794.88;5062862;28;19920;-89
2023/04/23 07:40:46;;;;;;;;;;;;;;;33.19;20.58;97801.50;5071359;28;20014;-89
2023/04/23 07:43:12;;;;;;;;;;;;;;;33.34;19.17;97800.13;5069465;28;19965;-90
2023/04/23 07:45:39;;;;;;;;;;;;;;;33.12;21.03;97797.06;5070007;28;19920;-91
2023/04/23 07:48:05;;;;;;;;;;;;;;;33.16;22.46;97794.00;5064162;28;19917;-91
2023/04/23 07:50:31;;;;;;;;;;;;;;;33.39;23.37;97796.53;5061204;28;19920;-92
2023/04/23 07:52:57;;;;;;;;;;;;;;;33.64;21.79;97789.25;5068634;28;20399;-90
2023/04/23 07:55:23;;;;;;;;;;;;;;;33.62;21.39;97779.66;5066034;28;19921;-90
2023/04/23 07:57:49;;;;;;;;;;;;;;;33.73;21.03;97774.81;5064413;28;20377;-91
2023/04/23 08:00:15;;;;;;;;;;;;;;;33.32;22.48;97779.13;5070268;28;20319;-91
2023/04/23 08:02:41;;;;;;;;;;;;;;;33.58;22.01;97779.09;5068501;28;19978;-92
2023/04/23 08:05:08;;;;;;;;;;;;;;;33.57;20.02;97777.53;5063828;28;19928;-91
2023/04/23 08:07:34;;;;;;;;;;;;;;;33.39;20.52;97770.91;5069188;28;20438;-92
2023/04/23 08:10:04;;;;;;;;;;;;;;;33.29;19.31;97780.91;5066179;28;19924;-93
2023/04/23 08:12:33;;;;;;;;;;;;;;;33.49;20.74;97779.28;5062794;28;20380;-94
2023/04/23 08:14:59;;;;;;;;;;;;;;;33.06;20.40;97776.31;5059894;28;19924;-89
2023/04/23 08:17:25;;;;;;;;;;;;;;;32.80;19.55;97769.03;5065036;28;19928;-88
2023/04/23 08:19:51;;;;;;;;;;;;;;;32.33;20.53;97761.75;5060825;28;19925;-87
2023/04/23 08:22:17;;;;;;;;;;;;;;;32.74;19.82;97763.31;5054617;28;19921;-88
2023/04/23 08:24:45;;;;;;;;;;;;;;;32.18;20.08;97759.00;5070262;28;19920;-89
2023/04/23 08:27:12;;;;;;;;;;;;;;;32.42;21.18;97762.38;5067973;28;20502;-88
2023/04/23 08:29:38;;;;;;;;;;;;;;;32.69;21.59;97761.97;5071893;28;20011;-92
2023/04/23 08:32:04;;;;;;;;;;;;;;;32.68;19.28;97754.69;5077996;28;19900;-91
2023/04/23 08:34:33;;;;;;;;;;;;;;;32.92;20.42;97759.31;5080447;28;19974;-93
2023/04/23 08:36:59;;;;;;;;;;;;;;;33.26;19.35;97744.13;5070880;28;19952;-93
2023/04/23 08:39:26;;;;;;;;;;;;;;;33.36;20.33;97749.16;5063689;28;19925;-95
2023/04/23 08:41:54;;;;;;;;;;;;;;;33.80;20.94;97737.31;5076811;28;19920;-95
2023/04/23 08:44:24;;;;;;;;;;;;;;;34.20;20.70;97744.00;5070308;28;19986;-95
2023/04/23 08:46:51;;;;;;;;;;;;;;;34.47;21.50;97737.66;5076095;28;20435;-95
2023/04/23 08:49:18;;;;;;;;;;;;;;;34.39;19.79;97733.72;5071706;28;19952;-92
2023/04/23 08:51:53;;;;;;;;;;;;;;;34.31;22.29;97732.66;5057400;28;19970;-96
2023/04/23 08:54:22;;;;;;;;;;;;;;;34.53;20.76;97738.47;5077744;28;20007;-91
2023/04/23 08:56:49;;;;;;;;;;;;;;;34.67;20.98;97731.75;5071246;28;20380;-91
2023/04/23 08:59:16;;;;;;;;;;;;;;;34.54;20.86;97732.22;5076939;28;19956;-91
2023/04/23 09:01:43;;;;;;;;;;;;;;;34.69;19.79;97727.09;5067289;28;20731;-91
2023/04/23 09:04:09;;;;;;;;;;;;;;;34.89;19.91;97734.66;5074009;28;19935;-93
2023/04/23 09:06:35;;;;;;;;;;;;;;;35.04;20.54;97729.50;5075590;28;19920;-92
2023/04/23 09:09:01;;;;;;;;;;;;;;;35.33;21.28;97728.22;5077213;28;20007;-92
2023/04/23 09:11:28;;;;;;;;;;;;;;;35.59;20.50;97720.19;5076570;28;19917;-90
2023/04/23 09:13:55;;;;;;;;;;;;;;;35.61;20.29;97717.56;5075393;28;20296;-89
2023/04/23 09:16:21;;;;;;;;;;;;;;;35.09;16.17;97719.38;5072761;28;20007;-89
2023/04/23 09:18:50;;;;;;;;;;;;;;;34.93;20.71;97714.41;5069098;28;19929;-89
2023/04/23 09:21:16;;;;;;;;;;;;;;;35.27;20.43;97719.66;5073522;28;20394;-88
2023/04/23 09:23:42;;;;;;;;;;;;;;;35.37;21.76;97723.00;5067646;28;19978;-89
2023/04/23 09:26:08;;;;;;;;;;;;;;;35.37;19.85;97718.09;5063596;28;19924;-90
2023/04/23 09:28:35;;;;;;;;;;;;;;;35.03;19.86;97718.63;5070082;28;19932;-89
2023/04/23 09:31:04;;;;;;;;;;;;;;;35.13;20.51;97719.91;5078873;28;19975;-90
2023/04/23 09:33:31;;;;;;;;;;;;;;;34.64;20.40;97716.44;5068244;28;20339;-89
2023/04/23 09:35:57;;;;;;;;;;;;;;;34.40;18.71;97707.53;5071966;28;19921;-89
2023/04/23 09:38:23;;;;;;;;;;;;;;;34.34;20.62;97714.53;5072131;28;19920;-90
2023/04/23 09:40:49;;;;;;;;;;;;;;;34.77;20.72;97715.19;5072565;28;19927;-89
2023/04/23 09:43:15;;;;;;;;;;;;;;;35.38;21.73;97708.22;5067791;28;19947;-90
2023/04/23 09:45:48;;;;;;;;;;;;;;;35.63;21.41;97703.53;5073355;28;19925;-91
2023/04/23 09:48:14;;;;;;;;;;;;;;;34.91;18.85;97703.53;5101698;28;19928;-90
2023/04/23 09:50:40;;;;;;;;;;;;;;;34.10;19.22;97700.69;5071653;28;19936;-91
2023/04/23 09:53:07;;;;;;;;;;;;;;;34.12;19.08;97698.13;5065376;28;19932;-89
2023/04/23 09:55:38;;;;;;;;;;;;;;;34.38;20.39;97701.56;5070340;28;20479;-91
2023/04/23 09:58:05;;;;;;;;;;;;;;;33.94;20.46;97692.81;5068804;28;19947;-90
2023/04/23 10:00:32;;;;;;;;;;;;;;;34.51;20.45;97695.41;5066772;28;19928;-89
2023/04/23 10:02:58;;;;;;;;;;;;;;;34.80;18.94;97692.09;5065532;28;19929;-90
2023/04/23 10:05:24;;;;;;;;;;;;;;;35.19;20.72;97692.94;5072444;28;19933;-91
2023/04/23 10:07:52;;;;;;;;;;;;;;;35.18;17.28;97679.94;5064361;28;19931;-90
2023/04/23 10:10:23;;;;;;;;;;;;;;;34.72;18.50;97677.59;5064527;28;19927;-90
2023/04/23 10:12:51;;;;;;;;;;;;;;;34.99;18.97;97678.09;5055787;28;19924;-91
2023/04/23 10:15:17;;;;;;;;;;;;;;;34.39;17.22;97676.69;5069829;28;19928;-91
2023/04/23 10:17:45;;;;;;;;;;;;;;;34.77;20.08;97680.94;5050814;28;19940;-91
2023/04/23 10:20:12;;;;;;;;;;;;;;;35.50;18.60;97673.94;5056998;28;19921;-92
2023/04/23 10:22:39;;;;;;;;;;;;;;;35.60;20.20;97670.28;5056380;28;20375;-91
2023/04/23 10:25:10;;;;;;;;;;;;;;;35.38;17.88;97662.53;5058591;28;19924;-88
2023/04/23 10:27:37;;;;;;;;;;;;;;;35.49;20.02;97667.44;5070155;28;19928;-91
2023/04/23 10:30:04;;;;;;;;;;;;;;;35.41;17.49;97660.69;5074286;28;19925;-91
2023/04/23 10:32:32;;;;;;;;;;;;;;;35.67;19.28;97660.41;5073934;28;19920;-92
2023/04/23 10:34:58;;;;;;;;;;;;;;;35.68;19.27;97659.91;5064221;28;19917;-91
2023/04/23 10:37:24;;;;;;;;;;;;;;;35.46;18.74;97647.72;5070212;28;20011;-91
2023/04/23 10:39:54;;;;;;;;;;;;;;;34.89;17.68;97649.06;5070857;28;20347;-90
2023/04/23 10:42:21;;;;;;;;;;;;;;;35.18;18.29;97642.06;5075680;28;19916;-91
2023/04/23 10:44:47;;;;;;;;;;;;;;;34.96;18.77;97639.97;5068314;28;19959;-91
2023/04/23 10:47:14;;;;;;;;;;;;;;;35.14;18.79;97647.25;5070349;28;19924;-90
2023/04/23 10:49:41;;;;;;;;;;;;;;;35.44;17.93;97642.53;5073706;28;19916;-89
2023/04/23 10:52:14;;;;;;;;;;;;;;;35.82;18.97;97643.75;5069740;28;19916;-88
2023/04/23 10:54:48;;;;;;;;;;;;;;;35.72;17.53;97640.41;5061379;28;20031;-88
2023/04/23 10:57:15;;;;;;;;;;;;;;;35.59;18.45;97642.28;5063912;28;19925;-89
2023/04/23 10:59:51;;;;;;;;;;;;;;;35.28;18.46;97649.06;5062836;28;19927;-88
2023/04/23 11:02:17;;;;;;;;;;;;;;;34.82;16.01;97625.97;5064998;28;19921;-88
2023/04/23 11:05:00;;;;;;;;;;;;;;;33.95;19.07;97629.66;5067049;28;19920;-90
2023/04/23 11:07:30;;;;;;;;;;;;;;;33.99;19.78;97632.25;5068804;28;19920;-93
2023/04/23 11:10:09;;;;;;;;;;;;;;;34.72;20.46;97631.94;5070598;28;20444;-93
2023/04/23 11:12:37;;;;;;;;;;;;;;;35.43;19.60;97629.53;5063235;28;19920;-92
2023/04/23 11:15:17;;;;;;;;;;;;;;;36.12;18.64;97632.47;5058309;28;20001;-91
2023/04/23 11:17:43;;;;;;;;;;;;;;;36.38;18.24;97621.41;5066273;28;19927;-91
2023/04/23 11:20:12;;;;;;;;;;;;;;;36.53;21.29;97630.41;5066339;28;19941;-90
2023/04/23 11:22:39;;;;;;;;;;;;;;;36.25;17.86;97615.47;5064780;28;19916;-91
2023/04/23 11:25:12;;;;;;;;;;;;;;;36.30;19.04;97626.88;5069069;28;19931;-90
2023/04/23 11:27:39;;;;;;;;;;;;;;;36.64;19.01;97625.38;5070782;28;20384;-91
2023/04/23 11:30:10;;;;;;;;;;;;;;;36.69;18.61;97621.69;5070795;28;19928;-91
2023/04/23 11:32:37;;;;;;;;;;;;;;;36.90;19.48;97624.91;5066137;28;20299;-90
2023/04/23 11:35:04;;;;;;;;;;;;;;;35.42;18.98;97616.56;5067018;28;19974;-90
2023/04/23 11:37:30;;;;;;;;;;;;;;;35.56;19.74;97621.25;5070972;28;19971;-89
2023/04/23 11:39:56;;;;;;;;;;;;;;;35.97;15.95;97616.41;5070907;28;19971;-90
2023/04/23 11:42:22;;;;;;;;;;;;;;;36.08;18.17;97620.53;5068759;28;19978;-91
2023/04/23 11:44:48;;;;;;;;;;;;;;;36.24;18.55;97611.09;5068840;28;19924;-89
2023/04/23 11:47:17;;;;;;;;;;;;;;;36.49;19.17;97615.63;5068107;28;19947;-89
2023/04/23 11:49:43;;;;;;;;;;;;;;;36.61;18.44;97611.38;5068670;28;19920;-88
2023/04/23 11:52:10;;;;;;;;;;;;;;;36.52;18.59;97612.50;5066397;28;19963;-88
2023/04/23 11:54:38;;;;;;;;;;;;;;;35.92;17.56;97613.53;5065993;28;19925;-89
2023/04/23 11:57:05;;;;;;;;;;;;;;;35.68;19.29;97604.84;5071634;28;19928;-89
2023/04/23 11:59:31;;;;;;;;;;;;;;;35.80;17.97;97603.50;5071323;28;19924;-90
2023/04/23 12:01:58;;;;;;;;;;;;;;;35.42;16.37;97594.53;5067730;28;20276;-88
2023/04/23 12:04:25;;;;;;;;;;;;;;;35.95;19.01;97598.22;5073111;28;19920;-87
2023/04/23 12:06:52;;;;;;;;;;;;;;;35.28;22.46;97595.59;5067349;28;20380;-91
2023/04/23 12:09:19;;;;;;;;;;;;;;;35.51;18.36;97586.97;5070947;28;19916;-91
2023/04/23 12:11:46;;;;;;;;;;;;;;;35.51;17.31;97584.13;5064354;28;19939;-90
2023/04/23 12:14:13;;;;;;;;;;;;;;;34.82;17.59;97583.19;5066435;28;20078;-92
2023/04/23 12:16:40;;;;;;;;;;;;;;;35.47;17.28;97595.03;5064042;28;20016;-91
2023/04/23 12:19:09;;;;;;;;;;;;;;;36.48;18.03;97594.81;5061643;28;19920;-89
2023/04/23 12:21:49;;;;;;;;;;;;;;;37.12;16.80;97583.88;5065197;28;19929;-95
2023/04/23 12:24:15;;;;;;;;;;;;;;;37.52;19.00;97588.69;5069927;28;20011;-91
2023/04/23 12:26:44;;;;;;;;;;;;;;;37.22;18.23;97579.38;5057159;28;19986;-93
2023/04/23 12:29:12;;;;;;;;;;;;;;;37.53;18.77;97584.50;5064570;28;19920;-91
2023/04/23 12:31:42;;;;;;;;;;;;;;;37.58;17.98;97577.94;5061738;28;20390;-92
2023/04/23 12:34:08;;;;;;;;;;;;;;;37.72;15.97;97575.94;5068018;28;20350;-90
2023/04/23 12:36:35;;;;;;;;;;;;;;;37.69;17.75;97572.06;5071957;28;19931;-93
2023/04/23 12:39:20;;;;;;;;;;;;;;;37.78;19.72;97576.66;5063619;28;20410;-90
2023/04/23 12:41:48;;;;;;;;;;;;;;;37.40;16.93;97567.22;5070866;28;19920;-90
2023/04/23 12:44:14;;;;;;;;;;;;;;;37.23;18.98;97569.44;5065414;28;19939;-86
2023/04/23 12:46:40;;;;;;;;;;;;;;;36.87;17.91;97562.25;5069121;28;19929;-88